Time;durP1;ratioP1;P1;durP2;ratioP2;P2;SDS_P1;SDS_P2;PMS_P1;PMS_P2;Temp;Humidity;BMP_temperature;BMP_pressure;BME280_temperature;BME280_humidity;BME280_pressure;Samples;Min_cycle;Max_cycle;Signal;HPM_P1;HPM_P2
2023/11/01 00:02:21;;;;;;;6.95;1.30;;;;;;;5.11;99.63;100125.94;4873423;28;20066;-86
2023/11/01 00:04:47;;;;;;;3.42;1.10;;;;;;;5.08;99.59;100125.22;4833917;29;20036;-88
2023/11/01 00:07:13;;;;;;;4.55;1.13;;;6.50;99.90;;;5.05;99.39;100128.75;4792115;29;20495;-85
2023/11/01 00:09:40;;;;;;;5.70;1.38;;;6.50;99.90;;;5.03;99.26;100138.44;4816641;29;20036;-87
2023/11/01 00:12:06;;;;;;;6.72;1.13;;;;;;;5.01;99.55;100140.25;4790305;29;20087;-86
2023/11/01 00:14:32;;;;;;;5.40;1.23;;;6.40;99.90;;;5.02;99.92;100149.75;4825318;29;20625;-87
2023/11/01 00:17:05;;;;;;;3.92;1.10;;;6.40;99.90;;;5.02;100.00;100151.53;4787849;29;20036;-87
2023/11/01 00:19:31;;;;;;;3.35;1.00;;;;;;;4.98;100.00;100142.09;4790970;29;20115;-86
2023/11/01 00:21:57;;;;;;;9.50;1.20;;;6.40;99.90;;;4.93;100.00;100144.84;4783771;29;20050;-87
2023/11/01 00:24:50;;;;;;;4.50;1.30;;;6.30;99.90;;;4.86;100.00;100136.38;4817773;29;20048;-86
2023/11/01 00:27:17;;;;;;;3.45;1.30;;;;;;;4.81;100.00;100143.47;4800795;29;20101;-86
2023/11/01 00:29:43;;;;;;;6.75;2.03;;;;;;;4.77;100.00;100136.63;4824919;29;20036;-86
2023/11/01 00:32:18;;;;;;;10.95;1.60;;;6.20;99.90;;;4.73;100.00;100154.16;4801667;29;20040;-85
2023/11/01 00:34:46;;;;;;;5.03;1.30;;;;;;;4.67;100.00;100151.75;4795843;29;20039;-86
2023/11/01 00:37:12;;;;;;;4.28;1.33;;;;;;;4.63;100.00;100154.50;4825942;29;20040;-86
2023/11/01 00:39:45;;;;;;;5.22;1.58;;;6.10;99.90;;;4.63;100.00;100163.16;4806292;29;20044;-86
2023/11/01 00:42:15;;;;;;;5.47;1.50;;;;;;;4.61;100.00;100164.97;4846845;28;20087;-86
2023/11/01 00:44:47;;;;;;;2.42;1.10;;;;;;;4.62;100.00;100163.22;4900377;28;20090;-85
2023/11/01 00:47:15;;;;;;;4.85;1.27;;;;;;;4.63;100.00;100159.72;4894744;28;20042;-86
2023/11/01 00:49:51;;;;;;;;;;;;;;;;;;;;;
2023/11/01 00:52:23;;;;;;;4.15;1.52;;;;;;;4.63;100.00;100171.00;4856511;28;21078;-85
2023/11/01 00:54:57;;;;;;;2.53;1.45;;;6.10;99.90;;;4.64;100.00;100164.03;4845097;28;20044;-86
2023/11/01 00:57:26;;;;;;;3.22;1.58;;;6.10;99.90;;;4.62;100.00;100166.69;4823855;29;20057;-86
2023/11/01 01:00:17;;;;;;;5.10;1.50;;;6.10;99.90;;;4.65;100.00;100177.00;4858701;28;20051;-86
2023/11/01 01:02:45;;;;;;;3.95;1.30;;;;;;;4.66;100.00;100175.25;4847736;28;20530;-86
2023/11/01 01:05:11;;;;;;;4.25;1.30;;;6.10;99.90;;;4.65;100.00;100168.34;4852681;29;20047;-86
2023/11/01 01:07:44;;;;;;;5.30;1.38;;;6.10;99.90;;;4.62;100.00;100169.31;4840815;29;20522;-86
2023/11/01 01:10:25;;;;;;;4.53;1.35;;;;;;;4.58;100.00;100166.81;4843774;29;20387;-87
2023/11/01 01:12:51;;;;;;;10.00;1.85;;;6.00;99.90;;;4.54;100.00;100175.66;4859875;28;20046;-85
2023/11/01 01:15:16;;;;;;;2.60;1.00;;;5.90;99.90;;;4.46;100.00;100176.72;4842016;28;20457;-86
2023/11/01 01:17:53;;;;;;;6.70;1.40;;;5.90;99.90;;;4.40;100.00;100173.44;4839654;29;20070;-86
2023/11/01 01:20:19;;;;;;;4.20;1.40;;;5.80;99.90;;;4.33;100.00;100180.59;4854547;28;20033;-86
2023/11/01 01:22:45;;;;;;;4.90;1.13;;;5.80;99.90;;;4.26;100.00;100181.69;4830960;28;20111;-86
2023/11/01 01:25:13;;;;;;;7.10;1.67;;;;;;;4.19;100.00;100183.63;4877916;28;20075;-86
2023/11/01 01:27:44;;;;;;;3.40;1.25;;;5.60;99.90;;;4.12;100.00;100184.66;4897923;28;20055;-85
2023/11/01 01:30:13;;;;;;;3.67;1.33;;;5.60;99.90;;;4.08;100.00;100198.69;4887713;28;20099;-86
2023/11/01 01:32:39;;;;;;;2.13;1.00;;;5.50;99.90;;;4.04;100.00;100187.50;4888365;28;20042;-86
2023/11/01 01:35:16;;;;;;;4.10;1.00;;;;;;;4.02;100.00;100185.84;4905122;28;22264;-85
2023/11/01 01:37:55;;;;;;;4.40;1.30;;;;;;;3.99;100.00;100188.53;4890100;28;20121;-86
2023/11/01 01:40:34;;;;;;;;;;;;;;;;;;;;;
2023/11/01 01:43:32;;;;;;;10.05;1.58;;;5.40;99.90;;;3.92;100.00;100192.22;4898523;28;20042;-85
2023/11/01 01:46:15;;;;;;;8.07;1.73;;;;;;;3.88;100.00;100192.28;4959164;28;20041;-85
2023/11/01 01:48:47;;;;;;;3.85;1.33;;;;;;;3.87;100.00;100193.19;4943028;28;20116;-86
2023/11/01 01:51:16;;;;;;;6.22;1.60;;;5.30;99.90;;;3.85;100.00;100181.97;4946996;28;20105;-85
2023/11/01 01:53:54;;;;;;;9.73;1.77;;;;;;;3.86;100.00;100183.66;4900962;28;20031;-85
2023/11/01 01:56:34;;;;;;;7.57;1.33;;;5.30;99.90;;;3.88;100.00;100187.06;4902352;28;20070;-85
2023/11/01 01:59:03;;;;;;;5.13;1.40;;;;;;;3.87;100.00;100189.75;4908152;28;20525;-86
2023/11/01 02:01:35;;;;;;;7.13;1.20;;;5.30;99.90;;;3.86;100.00;100183.66;4900818;28;20042;-88
2023/11/01 02:04:04;;;;;;;8.13;1.63;;;5.30;99.90;;;3.89;100.00;100188.78;4919277;28;20119;-86
2023/11/01 02:06:37;;;;;;;2.70;1.55;;;;;;;3.93;100.00;100196.50;4874299;28;25268;-86
2023/11/01 02:09:15;;;;;;;4.22;1.13;;;;;;;3.96;100.00;100194.69;4889631;28;20038;-86
2023/11/01 02:11:46;;;;;;;6.00;1.77;;;;;;;3.97;100.00;100195.53;4881453;28;20106;-86
2023/11/01 02:14:12;;;;;;;7.93;2.17;;;5.40;99.90;;;3.96;100.00;100193.84;4919822;28;20038;-85
2023/11/01 02:16:38;;;;;;;4.25;1.27;;;5.40;99.90;;;3.97;100.00;100206.78;4923530;28;20031;-85
2023/11/01 02:19:15;;;;;;;4.93;1.58;;;;;;;3.93;100.00;100205.19;4921911;28;20152;-85
2023/11/01 02:21:44;;;;;;;2.65;1.55;;;;;;;3.92;100.00;100197.41;4913339;28;21055;-87
2023/11/01 02:24:17;;;;;;;3.40;1.30;;;;;;;3.90;100.00;100198.31;4855249;28;20046;-86
2023/11/01 02:26:46;;;;;;;6.15;1.40;;;;;;;3.87;100.00;100207.97;4918938;23;20049;-86
2023/11/01 02:29:11;;;;;;;7.68;1.42;;;5.30;99.90;;;3.84;100.00;100206.28;4910940;28;20046;-86
2023/11/01 02:31:45;;;;;;;4.00;1.40;;;;;;;3.83;100.00;100209.78;4946800;28;20420;-85
2023/11/01 02:34:10;;;;;;;6.18;1.65;;;5.30;99.90;;;3.78;100.00;100203.88;4983211;28;20566;-86
2023/11/01 02:36:38;;;;;;;3.13;1.30;;;;;;;3.75;100.00;100211.75;4917634;28;20126;-86
2023/11/01 02:39:06;;;;;;;10.75;1.88;;;;;;;3.67;100.00;100213.69;4908415;28;20408;-86
2023/11/01 02:41:54;;;;;;;;;;;;;;;;;;;;;
2023/11/01 02:44:20;;;;;;;3.65;1.45;;;4.80;99.90;;;3.54;100.00;100212.31;4918310;28;20411;-86
2023/11/01 02:46:46;;;;;;;3.80;1.25;;;5.00;99.90;;;3.47;100.00;100199.44;4971050;28;20034;-86
2023/11/01 02:49:20;;;;;;;4.05;1.48;;;;;;;3.46;100.00;100205.56;4921451;28;20049;-86
2023/11/01 02:51:46;;;;;;;1.63;1.00;;;;;;;3.39;100.00;100214.44;4936158;28;20038;-86
2023/11/01 02:54:15;;;;;;;4.53;1.35;;;;;;;3.31;100.00;100205.94;4974592;28;20029;-86
2023/11/01 02:56:49;;;;;;;2.88;1.30;;;4.80;99.90;;;3.26;100.00;100213.88;4975855;28;20046;-86
2023/11/01 02:59:15;;;;;;;4.90;1.45;;;4.70;99.90;;;3.21;100.00;100217.47;4961361;28;20038;-86
2023/11/01 03:01:44;;;;;;;7.00;1.40;;;4.60;99.90;;;3.12;100.00;100213.34;4965284;28;20048;-86
2023/11/01 03:04:17;;;;;;;5.57;1.30;;;;;;;3.10;100.00;100211.69;4921840;28;20034;-86
2023/11/01 03:06:43;;;;;;;4.28;1.40;;;;;;;3.02;100.00;100217.06;4950326;28;20466;-86
2023/11/01 03:09:09;;;;;;;3.05;1.45;;;4.50;99.90;;;2.98;100.00;100213.69;4982452;28;20033;-86
2023/11/01 03:11:34;;;;;;;4.35;1.52;;;4.50;99.90;;;2.95;100.00;100211.13;4965976;28;20443;-86
2023/11/01 03:14:00;;;;;;;5.90;1.30;;;4.40;99.90;;;2.87;100.00;100213.94;4959423;28;20406;-85
2023/11/01 03:16:36;;;;;;;3.25;1.35;;;;;;;2.83;100.00;100220.09;4957384;28;20242;-86
2023/11/01 03:19:02;;;;;;;7.18;1.42;;;;;;;2.77;100.00;100225.44;4978581;28;20160;-85
2023/11/01 03:21:27;;;;;;;8.82;1.58;;;4.30;99.90;;;2.77;100.00;100222.84;4986076;28;20034;-85
2023/11/01 03:24:08;;;;;;;5.15;1.77;;;4.30;99.90;;;2.71;100.00;100238.56;4954012;28;20044;-86
2023/11/01 03:26:45;;;;;;;10.07;1.73;;;4.20;99.90;;;2.65;100.00;100226.53;4955011;28;20116;-86
2023/11/01 03:29:34;;;;;;;11.45;2.45;;;4.10;99.90;;;2.62;100.00;100233.56;4965795;28;20048;-86
2023/11/01 03:32:04;;;;;;;7.13;2.20;;;;;;;2.59;100.00;100238.81;4924168;28;20050;-86
2023/11/01 03:34:29;;;;;;;9.77;2.35;;;4.10;99.90;;;2.55;100.00;100244.97;4973660;28;20030;-86
2023/11/01 03:36:55;;;;;;;6.55;2.83;;;4.10;99.90;;;2.50;100.00;100242.47;4957586;28;20086;-86
2023/11/01 03:39:34;;;;;;;5.82;2.72;;;;;;;2.48;100.00;100246.84;4975931;28;20447;-86
2023/11/01 03:42:04;;;;;;;7.40;2.25;;;4.00;99.90;;;2.46;100.00;100252.09;4946677;28;20107;-85
2023/11/01 03:44:39;;;;;;;10.98;3.10;;;;;;;2.42;100.00;100240.06;4969758;28;20031;-85
2023/11/01 03:47:14;;;;;;;6.00;2.35;;;;;;;2.39;100.00;100247.03;4934593;28;20042;-85
2023/11/01 03:49:42;;;;;;;6.30;2.63;;;;;;;2.36;100.00;100252.31;4975351;28;20042;-85
2023/11/01 03:52:08;;;;;;;8.48;2.92;;;3.90;99.90;;;2.36;100.00;100255.75;4943060;28;20040;-85
2023/11/01 03:54:41;;;;;;;15.55;3.20;;;;;;;2.35;100.00;100254.03;4979555;28;20038;-86
2023/11/01 03:57:07;;;;;;;6.97;2.97;;;3.90;99.90;;;2.33;100.00;100255.81;4965504;28;20759;-86
2023/11/01 03:59:36;;;;;;;6.55;2.83;;;;;;;2.32;100.00;100253.25;4973176;28;20041;-85
2023/11/01 04:02:31;;;;;;;8.70;2.97;;;;;;;2.31;100.00;100259.31;4971489;28;20527;-86
2023/11/01 04:05:06;;;;;;;6.57;3.38;;;3.80;99.90;;;2.28;100.00;100257.66;4963107;28;20055;-85
2023/11/01 04:07:32;;;;;;;7.07;3.45;;;3.80;99.90;;;2.26;100.00;100255.06;4953825;28;20515;-85
2023/11/01 04:09:58;;;;;;;12.85;3.67;;;;;;;2.24;100.00;100256.84;4952956;28;20033;-87
2023/11/01 04:12:24;;;;;;;8.10;3.53;;;3.80;99.90;;;2.22;100.00;100256.03;4973606;28;20042;-85
2023/11/01 04:14:58;;;;;;;6.57;3.53;;;3.70;99.90;;;2.24;100.00;100256.84;4925814;28;20035;-86
2023/11/01 04:17:27;;;;;;;8.77;2.60;;;;;;;2.24;100.00;100251.66;4984597;28;20037;-85
2023/11/01 04:20:00;;;;;;;9.20;3.28;;;3.70;99.90;;;2.22;100.00;100253.41;4959255;28;20052;-85
2023/11/01 04:22:27;;;;;;;6.60;2.80;;;;;;;2.19;100.00;100253.50;4930419;28;20045;-86
2023/11/01 04:24:55;;;;;;;5.40;2.95;;;3.70;99.90;;;2.18;100.00;100256.13;4981980;28;20037;-85
2023/11/01 04:27:39;;;;;;;4.97;2.47;;;3.70;99.90;;;2.16;100.00;100258.78;4912470;28;20404;-85
2023/11/01 04:30:15;;;;;;;5.03;2.50;;;3.60;99.90;;;2.14;100.00;100255.34;4935614;28;20550;-85
2023/11/01 04:32:46;;;;;;;6.97;2.60;;;;;;;2.11;100.00;100244.16;4919509;28;20034;-86
2023/11/01 04:35:15;;;;;;;7.13;2.80;;;3.60;99.90;;;2.07;100.00;100248.53;4952810;28;20036;-85
2023/11/01 04:37:49;;;;;;;8.93;3.22;;;3.60;99.90;;;2.04;100.00;100238.22;4978906;28;20079;-85
2023/11/01 04:40:15;;;;;;;7.82;3.15;;;3.50;99.90;;;1.99;100.00;100237.47;4933572;28;20030;-85
2023/11/01 04:42:46;;;;;;;8.18;2.97;;;3.50;99.90;;;2.00;100.00;100241.75;4931097;28;20126;-85
2023/11/01 04:45:24;;;;;;;7.57;2.95;;;3.50;99.90;;;1.98;100.00;100243.53;4960920;28;20038;-85
2023/11/01 04:48:03;;;;;;;;;;;;;;;;;;;;;
2023/11/01 04:50:31;;;;;;;7.38;3.10;;;3.40;99.90;;;1.94;100.00;100252.25;4946675;28;20029;-85
2023/11/01 04:53:05;;;;;;;13.23;3.42;;;3.40;99.90;;;1.89;100.00;100249.75;4931447;28;20030;-85
2023/11/01 04:55:30;;;;;;;7.10;3.03;;;3.40;99.90;;;1.85;100.00;100250.69;4934117;28;20106;-84
2023/11/01 04:57:56;;;;;;;7.53;3.17;;;3.40;99.90;;;1.83;100.00;100250.69;4948434;28;20037;-85
2023/11/01 05:00:24;;;;;;;9.30;4.18;;;3.30;99.90;;;1.82;100.00;100255.94;4955689;28;20539;-85
2023/11/01 05:02:58;;;;;;;6.63;3.67;;;3.30;99.90;;;1.77;100.00;100256.03;4945832;28;20044;-85
2023/11/01 05:05:24;;;;;;;5.47;3.20;;;3.30;99.90;;;1.72;100.00;100259.59;4921937;28;20034;-85
2023/11/01 05:07:51;;;;;;;8.75;2.88;;;3.30;99.90;;;1.67;100.00;100257.06;4958811;28;20518;-84
2023/11/01 05:10:27;;;;;;;6.75;3.00;;;;;;;1.63;100.00;100248.47;4961409;28;20037;-85
2023/11/01 05:12:53;;;;;;;12.25;2.50;;;3.10;99.90;;;1.58;100.00;100239.94;4999237;28;20116;-85
2023/11/01 05:15:19;;;;;;;6.22;2.50;;;3.10;99.90;;;1.56;100.00;100243.44;4969743;28;20495;-84
2023/11/01 05:17:54;;;;;;;6.63;2.15;;;3.10;99.90;;;1.54;100.00;100251.25;4948254;28;20482;-85
2023/11/01 05:20:20;;;;;;;5.80;2.40;;;;;;;1.49;100.00;100250.47;4945160;28;20441;-84
2023/11/01 05:22:46;;;;;;;5.03;2.35;;;3.00;99.90;;;1.47;100.00;100248.75;4977547;28;20040;-84
2023/11/01 05:25:18;;;;;;;8.65;2.58;;;;;;;1.43;100.00;100246.22;4961858;28;20042;-84
2023/11/01 05:27:44;;;;;;;7.55;2.60;;;2.90;99.90;;;1.42;100.00;100247.09;4989326;28;20052;-84
2023/11/01 05:30:14;;;;;;;13.43;2.92;;;3.00;99.90;;;1.40;100.00;100241.09;4932577;28;20034;-84
2023/11/01 05:32:45;;;;;;;10.38;2.90;;;;;;;1.39;100.00;100247.16;4954872;28;20510;-84
2023/11/01 05:35:14;;;;;;;7.60;3.08;;;2.90;99.90;;;1.34;100.00;100250.69;4939230;28;20095;-84
2023/11/01 05:37:44;;;;;;;15.05;3.30;;;2.90;99.90;;;1.31;100.00;100255.94;4933717;28;20018;-84
2023/11/01 05:40:16;;;;;;;8.02;3.00;;;2.90;99.90;;;1.29;100.00;100261.16;4935088;28;20034;-84
2023/11/01 05:42:56;;;;;;;7.05;3.20;;;2.80;99.90;;;1.26;100.00;100266.41;4952795;28;20058;-84
2023/11/01 05:45:25;;;;;;;6.38;2.72;;;2.80;99.90;;;1.25;100.00;100269.84;4953613;28;20029;-84
2023/11/01 05:47:58;;;;;;;10.18;3.40;;;2.80;99.90;;;1.22;100.00;100256.94;4971399;28;20061;-84
2023/11/01 05:50:25;;;;;;;8.30;3.10;;;2.80;99.90;;;1.25;100.00;100266.41;5001432;28;20026;-84
2023/11/01 05:52:56;;;;;;;8.55;3.10;;;2.70;99.90;;;1.18;100.00;100250.09;4949183;28;20508;-84
2023/11/01 05:55:30;;;;;;;16.40;3.75;;;;;;;1.21;100.00;100263.88;4955001;28;20495;-85
2023/11/01 05:57:55;;;;;;;11.18;3.70;;;2.80;99.90;;;1.22;100.00;100269.91;4976610;28;20034;-83
2023/11/01 06:00:22;;;;;;;16.08;5.32;;;2.70;99.90;;;1.24;100.00;100273.34;4987609;28;20042;-84
2023/11/01 06:02:48;;;;;;;17.08;7.03;;;2.70;99.90;;;1.21;100.00;100276.00;4958729;28;20419;-84
2023/11/01 06:05:22;;;;;;;14.52;6.03;;;2.70;99.90;;;1.21;100.00;100273.41;4967508;28;20053;-84
2023/11/01 06:07:48;;;;;;;11.30;5.57;;;2.70;99.90;;;1.20;100.00;100276.88;4963114;28;20045;-83
2023/11/01 06:10:14;;;;;;;21.95;7.88;;;2.70;99.90;;;1.18;100.00;100271.69;4943202;28;20120;-84
2023/11/01 06:12:39;;;;;;;26.50;12.05;;;2.70;99.90;;;1.18;100.00;100286.41;4969326;28;20172;-85
2023/11/01 06:15:13;;;;;;;66.40;28.58;;;2.70;99.90;;;1.17;100.00;100282.97;4983206;28;20030;-85
2023/11/01 06:17:39;;;;;;;51.08;23.88;;;2.70;99.90;;;1.17;100.00;100287.31;4967732;28;20038;-83
2023/11/01 06:20:06;;;;;;;57.03;26.48;;;2.70;99.90;;;1.17;100.00;100287.31;4965916;28;20753;-83
2023/11/01 06:22:36;;;;;;;47.60;22.55;;;2.70;99.90;;;1.18;100.00;100291.59;4954595;28;20581;-83
2023/11/01 06:25:10;;;;;;;28.52;14.70;;;2.70;99.90;;;1.20;100.00;100293.28;4961411;28;20043;-83
2023/11/01 06:27:36;;;;;;;21.25;9.35;;;;;;;1.24;100.00;100299.28;4962408;28;20416;-83
2023/11/01 06:30:13;;;;;;;18.95;7.53;;;2.70;99.90;;;1.24;100.00;100296.69;4974397;28;20120;-83
2023/11/01 06:32:39;;;;;;;22.02;7.40;;;2.80;99.90;;;1.28;100.00;100300.09;4973794;28;20030;-83
2023/11/01 06:35:05;;;;;;;19.08;6.85;;;2.80;99.90;;;1.31;100.00;100316.47;4974572;28;20045;-83
2023/11/01 06:37:34;;;;;;;19.80;6.68;;;2.80;99.90;;;1.35;100.00;100312.94;4939419;28;20097;-83
2023/11/01 06:40:01;;;;;;;13.65;6.65;;;2.80;99.90;;;1.39;100.00;100316.34;4945902;28;20046;-83
2023/11/01 06:42:27;;;;;;;14.52;6.10;;;2.90;99.90;;;1.43;100.00;100308.50;4982702;28;20117;-82
2023/11/01 06:44:53;;;;;;;14.73;5.55;;;2.90;99.90;;;1.47;100.00;100298.06;4980548;28;20045;-83
2023/11/01 06:47:19;;;;;;;13.60;4.93;;;3.00;99.90;;;1.53;100.00;100305.75;4953030;28;20045;-85
2023/11/01 06:49:47;;;;;;;10.40;4.78;;;3.00;99.90;;;1.52;100.00;100307.50;4954032;28;20045;-83
2023/11/01 06:52:15;;;;;;;15.70;4.32;;;3.00;99.90;;;1.52;100.00;100301.44;4952305;28;20113;-84
2023/11/01 06:54:44;;;;;;;10.82;3.60;;;3.00;99.90;;;1.49;100.00;100296.28;4955716;28;20038;-83
2023/11/01 06:57:16;;;;;;;10.68;3.92;;;3.00;99.90;;;1.50;100.00;100303.22;4969028;28;20044;-83
2023/11/01 06:59:49;;;;;;;14.55;3.80;;;3.00;99.90;;;1.53;100.00;100300.56;4949863;28;20092;-83
2023/11/01 07:02:15;;;;;;;14.70;3.42;;;3.10;99.90;;;1.56;100.00;100300.53;4955833;28;20060;-83
2023/11/01 07:04:48;;;;;;;9.82;3.40;;;3.10;99.90;;;1.62;100.00;100300.41;4953924;28;20044;-84
2023/11/01 07:07:16;;;;;;;10.75;2.97;;;3.10;99.90;;;1.65;100.00;100295.16;4908829;28;20038;-83
2023/11/01 07:09:42;;;;;;;6.80;2.83;;;3.20;99.90;;;1.67;100.00;100301.19;4967278;28;21856;-83
2023/11/01 07:12:07;;;;;;;6.40;2.70;;;3.20;99.90;;;1.73;100.00;100295.91;4982557;28;20187;-83
2023/11/01 07:14:39;;;;;;;9.95;3.05;;;3.30;99.90;;;1.79;100.00;100303.59;4971679;28;20428;-83
2023/11/01 07:17:05;;;;;;;9.68;2.83;;;3.30;99.90;;;1.89;100.00;100303.41;4951831;28;21272;-84
2023/11/01 07:19:31;;;;;;;9.27;2.60;;;3.40;99.90;;;1.97;100.00;100305.00;4953614;28;20046;-85
2023/11/01 07:21:56;;;;;;;12.15;2.53;;;3.50;99.90;;;2.07;100.00;100305.66;4952270;28;20033;-84
2023/11/01 07:24:24;;;;;;;9.30;3.63;;;3.60;99.90;;;2.19;100.00;100307.19;4959058;28;20037;-83
2023/11/01 07:26:59;;;;;;;5.50;2.60;;;3.70;99.90;;;2.31;100.00;100311.28;4972623;28;20511;-83
2023/11/01 07:29:25;;;;;;;7.55;2.88;;;3.80;99.90;;;2.43;100.00;100313.66;4973122;28;20124;-84
2023/11/01 07:31:50;;;;;;;12.13;3.70;;;3.90;99.90;;;2.57;100.00;100310.78;4967873;28;20057;-84
2023/11/01 07:34:16;;;;;;;9.57;2.55;;;4.00;99.90;;;2.70;100.00;100311.38;4963661;28;20484;-84
2023/11/01 07:36:47;;;;;;;7.28;2.63;;;;;;;2.80;100.00;100310.31;4971360;28;20404;-84
2023/11/01 07:39:13;;;;;;;10.10;1.77;;;4.30;99.90;;;2.91;100.00;100305.72;4956443;28;20047;-84
2023/11/01 07:41:39;;;;;;;4.95;2.50;;;4.40;99.90;;;3.01;100.00;100304.63;4961000;28;20557;-84
2023/11/01 07:44:05;;;;;;;6.55;2.30;;;4.50;99.90;;;3.12;100.00;100307.00;4971729;28;20036;-84
2023/11/01 07:46:38;;;;;;;7.55;2.55;;;4.50;99.90;;;3.19;100.00;100316.38;4960420;28;20514;-84
2023/11/01 07:49:06;;;;;;;5.15;2.40;;;4.60;99.90;;;3.24;100.00;100303.25;4987459;28;20040;-85
2023/11/01 07:51:34;;;;;;;5.80;2.03;;;4.70;99.90;;;3.31;100.00;100314.41;4975205;28;20030;-84
2023/11/01 07:53:59;;;;;;;12.82;2.60;;;4.70;99.90;;;3.31;100.00;100314.41;4954011;28;20038;-84
2023/11/01 07:56:33;;;;;;;8.85;2.53;;;;;;;3.38;100.00;100315.97;4956522;28;20059;-84
2023/11/01 07:58:59;;;;;;;6.00;1.88;;;4.80;99.90;;;3.40;100.00;100319.38;4981358;28;20506;-84
2023/11/01 08:01:25;;;;;;;8.45;2.30;;;4.80;99.90;;;3.46;100.00;100314.88;4965678;28;20052;-86
2023/11/01 08:03:51;;;;;;;4.65;1.90;;;;;;;3.55;100.00;100307.75;4943663;28;20065;-85
2023/11/01 08:06:26;;;;;;;4.68;2.00;;;;;;;3.63;100.00;100311.03;4951771;28;20041;-85
2023/11/01 08:08:55;;;;;;;3.92;1.73;;;;;;;3.70;100.00;100294.34;4945241;28;20037;-85
2023/11/01 08:11:29;;;;;;;9.18;2.10;;;5.10;99.90;;;3.77;100.00;100288.06;4979354;28;20033;-85
2023/11/01 08:13:56;;;;;;;2.47;1.33;;;;;;;3.84;100.00;100293.97;4958598;28;20035;-85
2023/11/01 08:16:22;;;;;;;4.97;1.50;;;5.30;99.90;;;3.90;100.00;100294.69;4957063;28;20051;-86
2023/11/01 08:18:47;;;;;;;10.45;1.30;;;5.30;99.90;;;3.99;100.00;100311.81;4920847;28;20043;-85
2023/11/01 08:21:37;;;;;;;7.50;1.23;;;5.40;99.90;;;4.08;100.00;100323.75;4957326;28;20474;-85
2023/11/01 08:24:06;;;;;;;5.20;1.45;;;;;;;4.13;100.00;100303.66;4965946;28;20048;-90
2023/11/01 08:26:32;;;;;;;4.28;1.67;;;5.60;99.90;;;4.13;100.00;100321.91;4977394;28;20041;-86
2023/11/01 08:29:09;;;;;;;4.88;1.40;;;;;;;4.24;100.00;100324.22;4993297;28;20334;-85
2023/11/01 08:31:35;;;;;;;4.95;1.70;;;5.70;99.90;;;4.33;100.00;100323.97;5007711;28;20033;-86
2023/11/01 08:34:08;;;;;;;5.40;1.50;;;;;;;4.45;100.00;100320.16;4982559;28;20113;-86
2023/11/01 08:36:37;;;;;;;11.73;1.55;;;;;;;4.53;100.00;100310.34;4927485;28;20076;-86
2023/11/01 08:39:15;;;;;;;6.07;1.50;;;;;;;4.57;100.00;100313.75;4987284;28;20053;-87
2023/11/01 08:41:41;;;;;;;4.88;1.55;;;5.90;99.90;;;4.61;100.00;100308.41;4937872;28;20046;-86
2023/11/01 08:44:07;;;;;;;4.65;1.55;;;;;;;4.57;100.00;100308.53;4929306;28;20455;-89
2023/11/01 08:47:45;;;;;;;;;;;;;;;;;;;;;
2023/11/01 08:50:18;;;;;;;6.43;1.67;;;;;;;4.63;100.00;100306.59;4901860;28;20082;-87
2023/11/01 08:52:47;;;;;;;5.40;1.70;;;;;;;4.70;100.00;100309.88;4872685;28;20727;-86
2023/11/01 08:55:16;;;;;;;3.03;1.58;;;6.10;99.90;;;4.73;100.00;100318.47;4903109;29;20040;-86
2023/11/01 08:58:08;;;;;;;7.47;1.60;;;6.20;99.90;;;4.87;100.00;100323.28;4896853;28;20040;-86
2023/11/01 09:00:37;;;;;;;5.65;1.33;;;;;;;4.96;100.00;100313.47;4889613;28;20041;-86
2023/11/01 09:03:30;;;;;;;6.22;1.70;;;6.40;99.90;;;5.03;100.00;100315.88;4879103;29;20162;-86
2023/11/01 09:05:59;;;;;;;2.22;1.30;;;6.70;99.90;;;5.03;100.00;100315.88;4844103;28;20036;-86
2023/11/01 09:08:39;;;;;;;5.78;1.23;;;6.40;99.90;;;5.08;100.00;100313.13;4910587;28;20043;-86
2023/11/01 09:11:15;;;;;;;5.60;1.40;;;6.50;99.90;;;5.10;100.00;100309.56;4833097;29;20044;-86
2023/11/01 09:13:43;;;;;;;4.40;1.30;;;;;;;5.14;100.00;100300.72;4871398;29;20618;-86
2023/11/01 09:16:18;;;;;;;2.53;1.20;;;6.50;99.90;;;5.12;100.00;100305.16;4852082;29;20051;-88
2023/11/01 09:18:58;;;;;;;4.47;1.20;;;;;;;5.18;100.00;100305.84;4895430;29;20039;-87
2023/11/01 09:21:24;;;;;;;3.42;0.90;;;;;;;5.20;100.00;100304.03;4875246;28;20054;-86
2023/11/01 09:23:50;;;;;;;3.17;1.30;;;;;;;5.18;100.00;100309.31;4861315;29;20036;-86
2023/11/01 09:26:25;;;;;;;4.03;0.90;;;6.60;99.90;;;5.21;100.00;100300.53;4860087;28;20439;-86
2023/11/01 09:29:08;;;;;;;4.25;1.15;;;6.70;99.90;;;5.29;100.00;100304.63;4928494;28;20034;-86
2023/11/01 09:31:45;;;;;;;5.00;1.17;;;;;;;5.46;100.00;100313.66;4912174;28;20064;-86
2023/11/01 09:34:11;;;;;;;7.28;1.08;;;6.90;99.90;;;5.53;100.00;100318.66;4952392;28;20026;-86
2023/11/01 09:39:30;;;;;;;1.83;0.63;;;;;;;5.55;100.00;100306.41;4924171;28;20524;-87
2023/11/01 09:42:39;;;;;;;4.78;0.80;;;;;;;5.63;100.00;100305.28;4953330;28;20057;-86
2023/11/01 09:45:20;;;;;;;2.75;0.40;;;;;;;5.69;99.86;100297.25;4924529;28;20499;-86
2023/11/01 09:47:52;;;;;;;2.35;0.70;;;;;;;5.68;98.68;100303.38;4957431;28;20048;-87
2023/11/01 09:50:45;;;;;;;6.68;0.80;;;7.10;99.90;;;5.75;97.26;100310.97;4885494;28;20122;-88
2023/11/01 09:53:11;;;;;;;1.45;0.77;;;7.10;99.90;;;5.81;96.96;100304.69;4967227;28;20042;-87
2023/11/01 09:55:46;;;;;;;3.70;0.68;;;7.20;99.90;;;5.85;96.90;100308.91;4895167;28;20087;-88
2023/11/01 09:58:28;;;;;;;2.97;0.70;;;7.20;99.90;;;5.91;97.28;100289.53;4894759;28;20045;-87
2023/11/01 10:01:04;;;;;;;2.30;1.00;;;;;;;5.94;96.96;100294.66;4919752;28;20034;-86
2023/11/01 10:03:30;;;;;;;1.40;0.60;;;7.30;99.90;;;5.99;96.47;100289.31;4952257;28;20516;-82
2023/11/01 10:05:58;;;;;;;0.80;0.50;;;7.40;99.90;;;6.06;96.53;100289.03;4931986;28;20314;-82
2023/11/01 10:08:24;;;;;;;2.53;0.82;;;7.40;99.90;;;6.08;96.02;100287.22;4920600;28;20053;-82
2023/11/01 10:11:02;;;;;;;3.72;0.60;;;7.40;99.90;;;6.13;95.39;100285.31;4914589;28;20030;-83
2023/11/01 10:13:34;;;;;;;6.53;0.93;;;7.50;99.90;;;6.14;96.06;100275.72;4917609;28;20038;-82
2023/11/01 10:16:00;;;;;;;3.17;0.82;;;7.40;99.90;;;6.14;94.76;100273.09;4956198;28;20468;-81
2023/11/01 10:18:26;;;;;;;1.33;0.50;;;7.40;99.90;;;6.09;93.06;100282.84;4937046;28;20033;-83
2023/11/01 10:20:55;;;;;;;17.67;0.95;;;;;;;6.08;92.84;100286.38;4958711;28;20025;-83
2023/11/01 10:23:29;;;;;;;1.20;0.65;;;7.40;99.90;;;6.08;92.50;100289.00;4975980;28;20038;-82
2023/11/01 10:25:57;;;;;;;3.03;0.68;;;7.40;99.90;;;6.12;92.13;100288.81;4967508;28;20117;-83
2023/11/01 10:28:34;;;;;;;7.78;0.90;;;;;;;6.18;92.79;100286.88;4937239;28;20042;-86
2023/11/01 10:31:00;;;;;;;4.28;0.75;;;7.50;99.90;;;6.22;92.92;100281.53;4977126;28;20071;-85
2023/11/01 10:33:40;;;;;;;2.10;0.70;;;;;;;6.26;93.43;100280.47;4926649;28;20116;-85
2023/11/01 10:36:07;;;;;;;2.88;0.70;;;7.60;99.90;;;6.26;92.72;100270.00;4935185;28;20037;-85
2023/11/01 10:38:35;;;;;;;3.67;0.70;;;7.60;99.90;;;6.37;92.91;100264.41;4943360;28;20046;-84
2023/11/01 10:41:10;;;;;;;2.17;0.73;;;7.70;99.90;;;6.47;92.84;100259.69;4898394;28;20041;-86
2023/11/01 10:43:36;;;;;;;1.88;0.60;;;7.80;99.90;;;6.51;92.39;100243.84;4917969;28;20483;-85
2023/11/01 10:46:12;;;;;;;7.40;0.70;;;7.80;99.90;;;6.60;91.48;100247.88;4934709;28;20037;-85
2023/11/01 10:48:39;;;;;;;3.35;0.70;;;7.90;99.90;;;6.66;91.01;100237.16;4930929;28;20085;-84
2023/11/01 10:51:06;;;;;;;5.13;0.70;;;8.00;99.90;;;6.73;90.41;100228.16;4882718;28;20038;-85
2023/11/01 10:53:35;;;;;;;2.92;0.75;;;8.00;99.90;;;6.78;89.74;100231.47;4883440;28;20034;-85
2023/11/01 10:56:03;;;;;;;2.83;1.42;;;8.10;99.90;;;6.87;90.06;100226.78;4884977;28;20131;-84
2023/11/01 10:58:39;;;;;;;3.17;0.80;;;8.20;99.90;;;6.86;89.19;100225.91;4892170;28;20077;-85
2023/11/01 11:01:40;;;;;;;4.65;1.00;;;8.30;99.90;;;7.03;89.56;100224.41;4911782;28;20682;-85
2023/11/01 11:04:50;;;;;;;3.35;1.60;;;8.20;99.90;;;6.91;88.59;100210.03;4899103;28;20049;-85
2023/11/01 11:07:48;;;;;;;2.65;0.63;;;8.30;99.90;;;6.98;89.07;100220.22;4906648;28;20102;-85